Time;durP1;ratioP1;P1;durP2;ratioP2;P2;SDS_P1;SDS_P2;PMS_P1;PMS_P2;Temp;Humidity;BMP_temperature;BMP_pressure;BME280_temperature;BME280_humidity;BME280_pressure;Samples;Min_cycle;Max_cycle;Signal;HPM_P1;HPM_P2
2022/03/03 00:00:13;;;;;;;;;;;2.00;99.90;;;;;;5072940;28;19923;-83
2022/03/03 00:02:39;;;;;;;;;;;1.90;99.90;;;;;;5073020;28;20400;-82
2022/03/03 00:05:05;;;;;;;;;;;1.90;99.90;;;;;;5123463;27;19927;-83
2022/03/03 00:07:30;;;;;;;;;;;1.90;99.90;;;;;;5089257;28;20406;-83
2022/03/03 00:09:56;;;;;;;;;;;1.90;99.90;;;;;;5072090;28;20358;-83
2022/03/03 00:12:21;;;;;;;;;;;1.80;99.90;;;;;;5073046;28;19923;-83
2022/03/03 00:14:47;;;;;;;;;;;1.90;99.90;;;;;;5072426;28;19976;-83
2022/03/03 00:17:12;;;;;;;;;;;1.80;99.90;;;;;;5067110;28;19923;-83
2022/03/03 00:19:38;;;;;;;;;;;1.80;99.90;;;;;;5075945;28;20399;-83
2022/03/03 00:22:04;;;;;;;;;;;1.80;99.90;;;;;;5075559;28;20292;-83
2022/03/03 00:24:29;;;;;;;;;;;1.80;99.90;;;;;;5076681;28;19930;-83
2022/03/03 00:26:55;;;;;;;;;;;1.80;99.90;;;;;;5087544;28;20661;-83
2022/03/03 00:29:21;;;;;;;;;;;1.90;99.90;;;;;;5079129;28;19924;-83
2022/03/03 00:31:46;;;;;;;;;;;1.80;99.90;;;;;;5075561;28;20024;-83
2022/03/03 00:34:12;;;;;;;;;;;1.70;99.90;;;;;;5075842;28;19923;-83
2022/03/03 00:36:37;;;;;;;;;;;1.80;99.90;;;;;;5069886;28;19924;-83
2022/03/03 00:39:03;;;;;;;;;;;1.70;99.90;;;;;;5074381;28;19969;-83
2022/03/03 00:41:29;;;;;;;;;;;1.70;99.90;;;;;;5092864;28;19930;-82
2022/03/03 00:43:55;;;;;;;;;;;1.60;99.90;;;;;;5075002;28;20309;-84
2022/03/03 00:46:21;;;;;;;;;;;1.60;99.90;;;;;;5078098;28;19928;-84
2022/03/03 00:48:47;;;;;;;;;;;1.60;99.90;;;;;;5075507;28;19931;-83
2022/03/03 00:51:12;;;;;;;;;;;1.60;99.90;;;;;;5075465;28;20051;-83
2022/03/03 00:53:38;;;;;;;;;;;1.60;99.90;;;;;;5075709;28;20002;-82
2022/03/03 00:56:04;;;;;;;;;;;1.60;99.90;;;;;;5075499;28;19972;-83
2022/03/03 00:58:29;;;;;;;;;;;1.50;99.90;;;;;;5075556;28;19924;-83
2022/03/03 01:00:55;;;;;;;;;;;1.50;99.90;;;;;;5075245;28;20487;-84
2022/03/03 01:03:20;;;;;;;;;;;1.50;99.90;;;;;;5088029;28;19946;-83
2022/03/03 01:05:46;;;;;;;;;;;1.50;99.90;;;;;;5075195;28;19934;-83
2022/03/03 01:08:12;;;;;;;;;;;1.40;99.90;;;;;;5099493;27;20303;-83
2022/03/03 01:10:38;;;;;;;;;;;1.40;99.90;;;;;;5093218;28;19931;-83
2022/03/03 01:13:04;;;;;;;;;;;1.40;99.90;;;;;;5091962;28;19919;-83
2022/03/03 01:15:30;;;;;;;;;;;1.30;99.90;;;;;;5074817;28;20369;-83
2022/03/03 01:17:55;;;;;;;;;;;1.30;99.90;;;;;;5074982;28;20723;-83
2022/03/03 01:20:21;;;;;;;;;;;1.30;99.90;;;;;;5074265;28;20348;-83
2022/03/03 01:22:46;;;;;;;;;;;1.30;99.90;;;;;;5077090;28;19928;-82
2022/03/03 01:25:12;;;;;;;;;;;1.20;99.90;;;;;;5091707;28;20026;-83
2022/03/03 01:27:38;;;;;;;;;;;1.10;99.90;;;;;;5074044;28;19927;-84
2022/03/03 01:30:04;;;;;;;;;;;1.00;99.90;;;;;;5067624;28;19935;-83
2022/03/03 01:32:29;;;;;;;;;;;0.90;99.90;;;;;;5074527;28;19935;-83
2022/03/03 01:34:55;;;;;;;;;;;0.70;99.90;;;;;;5079198;28;19927;-83
2022/03/03 01:37:20;;;;;;;;;;;0.60;99.90;;;;;;5076656;28;20376;-83
2022/03/03 01:39:46;;;;;;;;;;;0.50;99.90;;;;;;5092016;28;19935;-84
2022/03/03 01:42:13;;;;;;;;;;;0.50;99.90;;;;;;5086577;28;19927;-83
2022/03/03 01:44:41;;;;;;;;;;;0.50;99.90;;;;;;5076395;28;19931;-83
2022/03/03 01:47:14;;;;;;;;;;;0.30;99.90;;;;;;5073838;28;20468;-83
2022/03/03 01:49:39;;;;;;;;;;;0.30;99.90;;;;;;5074365;28;19972;-83
2022/03/03 01:52:05;;;;;;;;;;;0.20;99.90;;;;;;5094784;27;20361;-83
2022/03/03 01:54:30;;;;;;;;;;;0.10;99.90;;;;;;5102663;27;19923;-83
2022/03/03 01:56:57;;;;;;;;;;;0.10;99.90;;;;;;5072476;28;19927;-83
2022/03/03 01:59:22;;;;;;;;;;;0.00;99.90;;;;;;5074049;28;19931;-82
2022/03/03 02:01:48;;;;;;;;;;;0.00;99.90;;;;;;5074156;28;19923;-83
2022/03/03 02:04:13;;;;;;;;;;;0.00;99.90;;;;;;5073930;28;20272;-83
2022/03/03 02:06:39;;;;;;;;;;;0.00;99.90;;;;;;5073407;28;20296;-83
2022/03/03 02:09:05;;;;;;;;;;;-0.10;99.90;;;;;;5073892;28;19923;-82
2022/03/03 02:11:31;;;;;;;;;;;-0.20;99.90;;;;;;5079751;28;19923;-83
2022/03/03 02:13:57;;;;;;;;;;;-0.20;99.90;;;;;;5073665;28;19985;-83
2022/03/03 02:16:23;;;;;;;;;;;-0.20;99.90;;;;;;5073582;28;20463;-83
2022/03/03 02:18:48;;;;;;;;;;;-0.10;99.90;;;;;;5073360;28;19919;-82
2022/03/03 02:21:15;;;;;;;;;;;-0.10;99.90;;;;;;5077011;27;19923;-83
2022/03/03 02:23:41;;;;;;;;;;;0.10;99.90;;;;;;5075985;28;19926;-83
2022/03/03 02:26:07;;;;;;;;;;;0.10;99.90;;;;;;5104877;27;19928;-82
2022/03/03 02:28:32;;;;;;;;;;;0.20;99.90;;;;;;5091215;28;20400;-83
2022/03/03 02:30:58;;;;;;;;;;;0.30;99.90;;;;;;5081916;28;19919;-83
2022/03/03 02:33:24;;;;;;;;;;;0.20;99.90;;;;;;5073189;28;19927;-83
2022/03/03 02:35:49;;;;;;;;;;;0.20;99.90;;;;;;5073095;28;20323;-82
2022/03/03 02:38:15;;;;;;;;;;;0.20;99.90;;;;;;5073182;28;20284;-83
2022/03/03 02:40:40;;;;;;;;;;;0.10;99.90;;;;;;5073416;28;19923;-83
2022/03/03 02:43:06;;;;;;;;;;;0.10;99.90;;;;;;5082662;28;20022;-83
2022/03/03 02:45:31;;;;;;;;;;;0.10;99.90;;;;;;5077107;28;19982;-82
2022/03/03 02:47:57;;;;;;;;;;;0.10;99.90;;;;;;5094928;27;19930;-82
2022/03/03 02:50:25;;;;;;;;;;;0.10;99.90;;;;;;5095731;28;19968;-83
2022/03/03 02:52:51;;;;;;;;;;;0.10;99.90;;;;;;5077357;28;19920;-83
2022/03/03 02:55:17;;;;;;;;;;;0.10;99.90;;;;;;5110588;27;19931;-83
2022/03/03 02:57:55;;;;;;;;;;;0.10;99.90;;;;;;5075966;28;19920;-83
2022/03/03 03:00:25;;;;;;;;;;;0.10;99.90;;;;;;5077599;28;20368;-83
2022/03/03 03:02:51;;;;;;;;;;;0.20;99.90;;;;;;5077645;28;19920;-83
2022/03/03 03:05:16;;;;;;;;;;;0.20;99.90;;;;;;5077468;28;19930;-83
2022/03/03 03:07:42;;;;;;;;;;;0.20;99.90;;;;;;5077046;28;19924;-82
2022/03/03 03:10:07;;;;;;;;;;;0.20;99.90;;;;;;5094360;28;19927;-82
2022/03/03 03:12:33;;;;;;;;;;;0.20;99.90;;;;;;5070978;28;20360;-82
2022/03/03 03:14:58;;;;;;;;;;;0.30;99.90;;;;;;5077645;28;20419;-82
2022/03/03 03:17:24;;;;;;;;;;;0.30;99.90;;;;;;5087622;28;19946;-82
2022/03/03 03:19:49;;;;;;;;;;;0.30;99.90;;;;;;5077172;28;19926;-82
2022/03/03 03:22:15;;;;;;;;;;;0.30;99.90;;;;;;5077647;28;19920;-83
2022/03/03 03:24:40;;;;;;;;;;;0.20;99.90;;;;;;5077704;28;20360;-82
2022/03/03 03:27:06;;;;;;;;;;;0.20;99.90;;;;;;5077147;28;19950;-83
2022/03/03 03:29:32;;;;;;;;;;;0.20;99.90;;;;;;5077330;28;19924;-82
2022/03/03 03:31:57;;;;;;;;;;;0.20;99.90;;;;;;5076886;28;19920;-82
2022/03/03 03:34:23;;;;;;;;;;;0.20;99.90;;;;;;5077626;28;19927;-82
2022/03/03 03:36:48;;;;;;;;;;;0.20;99.90;;;;;;5093981;28;20292;-82
2022/03/03 03:39:14;;;;;;;;;;;0.30;99.90;;;;;;5077582;28;19919;-82
2022/03/03 03:41:39;;;;;;;;;;;0.20;99.90;;;;;;5077268;28;19920;-83
2022/03/03 03:44:05;;;;;;;;;;;0.20;99.90;;;;;;5077293;28;20384;-82
2022/03/03 03:46:30;;;;;;;;;;;0.30;99.90;;;;;;5077013;28;20011;-82
2022/03/03 03:48:56;;;;;;;;;;;0.20;99.90;;;;;;5077434;28;20021;-83
2022/03/03 03:51:21;;;;;;;;;;;0.20;99.90;;;;;;5077480;28;20057;-83
2022/03/03 03:53:47;;;;;;;;;;;0.10;99.90;;;;;;5081281;28;20431;-83
2022/03/03 03:56:12;;;;;;;;;;;0.10;99.90;;;;;;5080549;28;19981;-82
2022/03/03 03:58:38;;;;;;;;;;;0.00;99.90;;;;;;5074031;28;20015;-82
2022/03/03 04:01:03;;;;;;;;;;;0.00;99.90;;;;;;5084631;28;19919;-82
2022/03/03 04:03:29;;;;;;;;;;;0.00;99.90;;;;;;5081594;28;20014;-82
2022/03/03 04:05:54;;;;;;;;;;;0.00;99.90;;;;;;5098787;28;19920;-81
2022/03/03 04:08:20;;;;;;;;;;;0.00;99.90;;;;;;5081082;28;19923;-82
2022/03/03 04:10:45;;;;;;;;;;;0.00;99.90;;;;;;5081770;28;19924;-82
2022/03/03 04:13:11;;;;;;;;;;;0.00;99.90;;;;;;5081627;28;19966;-82
2022/03/03 04:15:36;;;;;;;;;;;0.10;99.90;;;;;;5081852;28;19927;-82
2022/03/03 04:18:02;;;;;;;;;;;0.10;99.90;;;;;;5098107;28;19927;-82
2022/03/03 04:20:27;;;;;;;;;;;0.00;99.90;;;;;;5081539;28;19958;-82
2022/03/03 04:22:53;;;;;;;;;;;0.10;99.90;;;;;;5081883;28;20372;-82
2022/03/03 04:25:18;;;;;;;;;;;0.10;99.90;;;;;;5081328;28;19926;-82
2022/03/03 04:27:44;;;;;;;;;;;0.10;99.90;;;;;;5074379;28;20420;-81
2022/03/03 04:30:10;;;;;;;;;;;0.10;99.90;;;;;;5081185;28;19920;-82
2022/03/03 04:32:36;;;;;;;;;;;0.10;99.90;;;;;;5098038;28;19919;-82
2022/03/03 04:35:02;;;;;;;;;;;0.10;99.90;;;;;;5098420;28;20291;-82
2022/03/03 04:37:29;;;;;;;;;;;0.00;99.90;;;;;;5080651;28;21293;-82
2022/03/03 04:39:54;;;;;;;;;;;0.00;99.90;;;;;;5081321;28;19919;-82
2022/03/03 04:45:51;;;;;;;;;;;0.00;99.90;;;;;;5123086;28;19919;-82
2022/03/03 04:48:17;;;;;;;;;;;0.00;99.90;;;;;;5080714;28;19938;-82
2022/03/03 04:50:43;;;;;;;;;;;-0.10;99.90;;;;;;5081429;28;19920;-82
2022/03/03 04:53:08;;;;;;;;;;;0.00;99.90;;;;;;5081182;28;19964;-82
2022/03/03 04:55:33;;;;;;;;;;;0.00;99.90;;;;;;5091138;28;19920;-82
2022/03/03 04:57:59;;;;;;;;;;;0.00;99.90;;;;;;5080768;28;20372;-82
2022/03/03 05:00:24;;;;;;;;;;;0.10;99.90;;;;;;5080860;28;19920;-82
2022/03/03 05:02:50;;;;;;;;;;;0.10;99.90;;;;;;5076852;28;19931;-82
2022/03/03 05:05:15;;;;;;;;;;;0.20;99.90;;;;;;5079505;28;19919;-82
2022/03/03 05:07:41;;;;;;;;;;;0.20;99.90;;;;;;5083384;28;19927;-83
2022/03/03 05:10:07;;;;;;;;;;;0.20;99.90;;;;;;5097032;28;19927;-83
2022/03/03 05:12:33;;;;;;;;;;;0.20;99.90;;;;;;5100357;28;19920;-82
2022/03/03 05:14:58;;;;;;;;;;;0.20;99.90;;;;;;5079782;28;19920;-82
2022/03/03 05:17:24;;;;;;;;;;;0.20;99.90;;;;;;5079451;28;19927;-82
2022/03/03 05:19:49;;;;;;;;;;;0.20;99.90;;;;;;5079745;28;19920;-82
2022/03/03 05:22:15;;;;;;;;;;;0.20;99.90;;;;;;5096834;28;20368;-82
2022/03/03 05:24:40;;;;;;;;;;;0.20;99.90;;;;;;5096158;28;19968;-82
2022/03/03 05:27:06;;;;;;;;;;;0.20;99.90;;;;;;5078732;28;19931;-83
2022/03/03 05:29:31;;;;;;;;;;;0.20;99.90;;;;;;5096344;28;19923;-82
2022/03/03 05:31:58;;;;;;;;;;;0.20;99.90;;;;;;5096338;28;19923;-82
2022/03/03 05:34:23;;;;;;;;;;;0.10;99.90;;;;;;5079302;28;19919;-83
2022/03/03 05:36:49;;;;;;;;;;;0.20;99.90;;;;;;5079221;28;19919;-82
2022/03/03 05:39:15;;;;;;;;;;;0.10;99.90;;;;;;5079332;28;19920;-82
2022/03/03 05:41:41;;;;;;;;;;;0.10;99.90;;;;;;5079238;28;19920;-82
2022/03/03 05:44:10;;;;;;;;;;;0.10;99.90;;;;;;5079267;28;19934;-82
2022/03/03 05:46:36;;;;;;;;;;;0.00;99.90;;;;;;5095831;28;19928;-82
2022/03/03 05:49:02;;;;;;;;;;;0.00;99.90;;;;;;5072950;28;19921;-82
2022/03/03 05:51:27;;;;;;;;;;;0.00;99.90;;;;;;5078943;28;20007;-82
2022/03/03 05:53:53;;;;;;;;;;;0.10;99.90;;;;;;5079569;28;20041;-82
2022/03/03 05:56:18;;;;;;;;;;;0.00;99.90;;;;;;5078564;28;19928;-82
2022/03/03 05:58:48;;;;;;;;;;;0.00;99.90;;;;;;5095931;28;19927;-82
2022/03/03 06:01:15;;;;;;;;;;;0.00;99.90;;;;;;5079202;28;19926;-82
2022/03/03 06:03:41;;;;;;;;;;;0.00;99.90;;;;;;5078794;28;20072;-82
2022/03/03 06:06:15;;;;;;;;;;;0.00;99.90;;;;;;5078450;28;19924;-83
2022/03/03 06:08:42;;;;;;;;;;;0.00;99.90;;;;;;5079256;28;19924;-82
2022/03/03 06:11:12;;;;;;;;;;;0.00;99.90;;;;;;5095772;28;19923;-82
2022/03/03 06:13:47;;;;;;;;;;;0.00;99.90;;;;;;5078760;28;19923;-82
2022/03/03 06:16:16;;;;;;;;;;;0.00;99.90;;;;;;5070876;28;20372;-82
2022/03/03 06:18:44;;;;;;;;;;;0.00;99.90;;;;;;5072258;28;19920;-82
2022/03/03 06:21:19;;;;;;;;;;;-0.10;99.90;;;;;;5078893;28;20382;-82
2022/03/03 06:23:44;;;;;;;;;;;0.00;99.90;;;;;;5078417;28;19966;-82
2022/03/03 06:26:15;;;;;;;;;;;-0.10;99.90;;;;;;5078270;28;19924;-82
2022/03/03 06:28:40;;;;;;;;;;;0.00;99.90;;;;;;5077900;28;19934;-82
2022/03/03 06:31:06;;;;;;;;;;;0.00;99.90;;;;;;5094404;28;19920;-82
2022/03/03 06:33:33;;;;;;;;;;;0.10;99.90;;;;;;5103763;28;20339;-82
2022/03/03 06:35:59;;;;;;;;;;;0.00;99.90;;;;;;5074341;28;19981;-82
2022/03/03 06:38:24;;;;;;;;;;;0.10;99.90;;;;;;5076807;28;19923;-82
2022/03/03 06:40:50;;;;;;;;;;;0.10;99.90;;;;;;5074376;28;19920;-82
2022/03/03 06:43:15;;;;;;;;;;;0.10;99.90;;;;;;5078385;28;19920;-82
2022/03/03 06:45:41;;;;;;;;;;;0.10;99.90;;;;;;5078013;28;20517;-82
2022/03/03 06:48:06;;;;;;;;;;;0.10;99.90;;;;;;5077985;28;19982;-82
2022/03/03 06:50:36;;;;;;;;;;;0.10;99.90;;;;;;5083501;27;19923;-82
2022/03/03 06:53:24;;;;;;;;;;;0.10;99.90;;;;;;5081646;28;19920;-82
2022/03/03 06:55:50;;;;;;;;;;;0.10;99.90;;;;;;5072446;28;19924;-82
2022/03/03 06:58:17;;;;;;;;;;;0.10;99.90;;;;;;5117966;27;20330;-82
2022/03/03 07:00:46;;;;;;;;;;;0.10;99.90;;;;;;5075457;28;19969;-82
2022/03/03 07:03:12;;;;;;;;;;;0.10;99.90;;;;;;5076958;28;19927;-82
2022/03/03 07:05:38;;;;;;;;;;;0.10;99.90;;;;;;5077527;28;19919;-82
2022/03/03 07:08:04;;;;;;;;;;;0.20;99.90;;;;;;5100781;28;20014;-82
2022/03/03 07:10:30;;;;;;;;;;;0.20;99.90;;;;;;5074510;28;19920;-82
2022/03/03 07:12:56;;;;;;;;;;;0.20;99.90;;;;;;5075841;28;20399;-82
2022/03/03 07:15:23;;;;;;;;;;;0.30;99.90;;;;;;5095100;28;20376;-82
2022/03/03 07:18:13;;;;;;;;;;;0.30;99.90;;;;;;5081525;28;20003;-82
2022/03/03 07:20:48;;;;;;;;;;;0.30;99.90;;;;;;5089953;28;20005;-83
2022/03/03 07:23:19;;;;;;;;;;;0.40;99.90;;;;;;5072344;28;19919;-82
2022/03/03 07:25:48;;;;;;;;;;;0.40;99.90;;;;;;5078859;28;19920;-82
2022/03/03 07:28:20;;;;;;;;;;;0.50;99.90;;;;;;5080896;28;19932;-82
2022/03/03 07:30:48;;;;;;;;;;;0.60;99.90;;;;;;5075169;28;19920;-84
2022/03/03 07:33:23;;;;;;;;;;;0.60;99.90;;;;;;5094400;28;19920;-82
2022/03/03 07:35:49;;;;;;;;;;;0.70;99.90;;;;;;5104565;28;19927;-82
2022/03/03 07:38:22;;;;;;;;;;;0.80;99.90;;;;;;5073593;28;19924;-82
2022/03/03 07:40:48;;;;;;;;;;;0.80;99.90;;;;;;5080920;28;19981;-82
2022/03/03 07:43:14;;;;;;;;;;;0.90;99.90;;;;;;5078785;28;20049;-82
2022/03/03 07:45:41;;;;;;;;;;;1.00;99.90;;;;;;5077823;28;19920;-82
2022/03/03 07:48:06;;;;;;;;;;;1.10;99.90;;;;;;5080120;28;20292;-82
2022/03/03 07:50:32;;;;;;;;;;;1.10;99.90;;;;;;5078011;28;19927;-82
2022/03/03 07:52:58;;;;;;;;;;;1.20;99.90;;;;;;5070120;28;19927;-82
2022/03/03 07:55:23;;;;;;;;;;;1.30;99.90;;;;;;5076157;27;19928;-82
2022/03/03 07:57:59;;;;;;;;;;;1.40;99.90;;;;;;5069109;28;19978;-82
2022/03/03 08:00:27;;;;;;;;;;;1.50;99.90;;;;;;5092036;28;19959;-82
2022/03/03 08:02:55;;;;;;;;;;;1.50;99.90;;;;;;5083575;27;19926;-82
2022/03/03 08:05:21;;;;;;;;;;;1.60;99.90;;;;;;5121666;27;19920;-84
2022/03/03 08:07:48;;;;;;;;;;;1.70;99.90;;;;;;5102921;27;19931;-82
2022/03/03 08:10:15;;;;;;;;;;;2.50;99.90;;;;;;5112852;27;19930;-83
2022/03/03 08:12:42;;;;;;;;;;;1.90;99.90;;;;;;5074071;27;19984;-82
2022/03/03 08:15:17;;;;;;;;;;;2.00;99.90;;;;;;5121742;27;19923;-83
2022/03/03 08:17:45;;;;;;;;;;;2.10;99.90;;;;;;5083002;28;19927;-83
2022/03/03 08:20:10;;;;;;;;;;;2.20;99.90;;;;;;5080568;28;19924;-82
2022/03/03 08:22:38;;;;;;;;;;;2.30;99.90;;;;;;5082514;28;20015;-83
2022/03/03 08:25:04;;;;;;;;;;;2.40;99.90;;;;;;5077469;28;19979;-83
2022/03/03 08:27:30;;;;;;;;;;;2.50;99.90;;;;;;5080052;28;20018;-83
2022/03/03 08:29:56;;;;;;;;;;;2.60;99.90;;;;;;5080661;28;19979;-83
2022/03/03 08:32:23;;;;;;;;;;;2.60;99.90;;;;;;5079668;28;19919;-82
2022/03/03 08:35:08;;;;;;;;;;;2.80;99.90;;;;;;5080326;28;20781;-83
2022/03/03 08:37:38;;;;;;;;;;;2.90;99.90;;;;;;5095955;28;19926;-82
2022/03/03 08:42:57;;;;;;;;;;;3.10;99.90;;;;;;5095307;27;19939;-84
2022/03/03 08:45:33;;;;;;;;;;;3.20;99.90;;;;;;5100875;28;20326;-83
2022/03/03 08:48:14;;;;;;;;;;;3.20;99.90;;;;;;5111189;28;19931;-84
2022/03/03 08:50:40;;;;;;;;;;;3.30;99.90;;;;;;5078541;28;20364;-82
2022/03/03 08:53:10;;;;;;;;;;;3.40;99.90;;;;;;5079808;28;19972;-83
2022/03/03 08:55:44;;;;;;;;;;;3.50;99.90;;;;;;5079560;28;19923;-83
2022/03/03 08:58:14;;;;;;;;;;;3.50;99.90;;;;;;5105421;27;19927;-82
2022/03/03 09:00:52;;;;;;;;;;;3.60;99.90;;;;;;5079534;27;19920;-83
2022/03/03 09:03:30;;;;;;;;;;;3.70;99.90;;;;;;5075763;28;19934;-82
2022/03/03 09:06:00;;;;;;;;;;;3.80;99.90;;;;;;5075400;28;19920;-83
2022/03/03 09:08:25;;;;;;;;;;;3.90;99.90;;;;;;5102048;28;19924;-83
2022/03/03 09:10:51;;;;;;;;;;;4.00;99.90;;;;;;5079746;28;19930;-82
2022/03/03 09:13:16;;;;;;;;;;;4.10;99.90;;;;;;5079384;28;19923;-83
2022/03/03 09:15:42;;;;;;;;;;;4.20;99.90;;;;;;5079563;28;20388;-83
2022/03/03 09:18:07;;;;;;;;;;;4.30;99.90;;;;;;5078994;28;19998;-82
2022/03/03 09:20:33;;;;;;;;;;;4.40;99.90;;;;;;5078625;28;20343;-83
2022/03/03 09:23:09;;;;;;;;;;;4.50;99.90;;;;;;5081975;28;19920;-83
2022/03/03 09:25:36;;;;;;;;;;;4.60;99.90;;;;;;5103697;27;20436;-83
2022/03/03 09:28:03;;;;;;;;;;;4.60;99.90;;;;;;5078942;28;19928;-84
2022/03/03 09:30:28;;;;;;;;;;;4.70;99.90;;;;;;5080361;27;19931;-83
2022/03/03 09:32:54;;;;;;;;;;;4.80;99.90;;;;;;5081087;28;19919;-83
2022/03/03 09:35:19;;;;;;;;;;;4.90;99.90;;;;;;5079104;28;19920;-83
2022/03/03 09:37:45;;;;;;;;;;;4.90;99.90;;;;;;5078619;28;19959;-83
2022/03/03 09:40:11;;;;;;;;;;;5.00;99.90;;;;;;5074921;28;20312;-85
2022/03/03 09:42:37;;;;;;;;;;;5.10;99.90;;;;;;5099811;28;20079;-85
2022/03/03 09:45:09;;;;;;;;;;;5.20;99.90;;;;;;5095472;28;19930;-83
2022/03/03 09:47:35;;;;;;;;;;;5.30;99.90;;;;;;5076927;28;19924;-84
2022/03/03 09:50:01;;;;;;;;;;;5.40;99.90;;;;;;5071650;28;19927;-83
2022/03/03 09:52:27;;;;;;;;;;;5.40;99.90;;;;;;5080753;28;19928;-84
2022/03/03 09:54:57;;;;;;;;;;;5.40;99.90;;;;;;5076138;28;20050;-83
2022/03/03 09:57:24;;;;;;;;;;;5.50;99.90;;;;;;5091883;28;19920;-83
2022/03/03 09:59:50;;;;;;;;;;;5.70;99.90;;;;;;5089902;28;19950;-84
2022/03/03 10:02:15;;;;;;;;;;;5.70;99.90;;;;;;5073057;28;20493;-83
2022/03/03 10:04:40;;;;;;;;;;;5.80;99.90;;;;;;5079069;28;19919;-83
2022/03/03 10:07:07;;;;;;;;;;;5.90;99.90;;;;;;5095425;28;20315;-85
2022/03/03 10:09:59;;;;;;;;;;;5.90;99.90;;;;;;5078550;28;19926;-83
2022/03/03 10:12:19;;;;;;;;;;;5.90;99.90;;;;;;5091260;28;19920;-83
2022/03/03 10:14:48;;;;;;;;;;;6.10;99.90;;;;;;5095671;28;19920;-83
2022/03/03 10:17:14;;;;;;;;;;;6.10;99.90;;;;;;5077943;28;19926;-83
2022/03/03 10:19:56;;;;;;;;;;;6.10;99.90;;;;;;5078087;28;20388;-83
2022/03/03 10:25:32;;;;;;;;;;;6.10;99.90;;;;;;5088584;28;19923;-83
2022/03/03 10:28:16;;;;;;;;;;;6.20;99.90;;;;;;5090300;28;20018;-83
2022/03/03 10:30:48;;;;;;;;;;;6.30;99.90;;;;;;5071995;28;19923;-83
2022/03/03 10:33:14;;;;;;;;;;;6.40;99.90;;;;;;5080271;28;19920;-84
2022/03/03 10:35:39;;;;;;;;;;;6.50;99.90;;;;;;5078848;28;19926;-83
2022/03/03 10:38:05;;;;;;;;;;;6.60;99.90;;;;;;5077931;28;19920;-84
2022/03/03 10:40:31;;;;;;;;;;;6.70;99.90;;;;;;5074496;28;19927;-83
2022/03/03 10:42:56;;;;;;;;;;;6.70;99.90;;;;;;5091999;28;20010;-84
2022/03/03 10:45:22;;;;;;;;;;;6.80;99.90;;;;;;5071442;28;20006;-83
2022/03/03 10:48:14;;;;;;;;;;;6.80;99.90;;;;;;5094688;28;20304;-84
2022/03/03 10:50:45;;;;;;;;;;;6.90;99.90;;;;;;5073281;28;19919;-83
2022/03/03 10:53:11;;;;;;;;;;;7.00;99.90;;;;;;5098463;28;19920;-83
2022/03/03 10:55:36;;;;;;;;;;;7.00;99.90;;;;;;5078402;28;20451;-84
2022/03/03 10:58:02;;;;;;;;;;;7.10;99.90;;;;;;5077621;28;19965;-84
2022/03/03 11:00:30;;;;;;;;;;;7.20;99.90;;;;;;5078019;28;19927;-84
2022/03/03 11:02:57;;;;;;;;;;;7.20;99.90;;;;;;5089150;28;19995;-84
2022/03/03 11:05:24;;;;;;;;;;;7.30;99.90;;;;;;5071087;28;19919;-84
2022/03/03 11:07:50;;;;;;;;;;;7.50;99.90;;;;;;5077598;28;20499;-84
2022/03/03 11:10:17;;;;;;;;;;;7.50;99.90;;;;;;5093818;28;19920;-84
2022/03/03 11:12:45;;;;;;;;;;;7.70;99.90;;;;;;5078503;28;20015;-85
2022/03/03 11:15:12;;;;;;;;;;;7.70;99.90;;;;;;5094615;28;19996;-84
2022/03/03 11:17:38;;;;;;;;;;;7.90;99.90;;;;;;5093956;28;19923;-85
2022/03/03 11:20:05;;;;;;;;;;;7.80;99.90;;;;;;5094318;28;19951;-84
2022/03/03 11:22:31;;;;;;;;;;;7.90;99.90;;;;;;5077795;28;20273;-84
2022/03/03 11:24:57;;;;;;;;;;;8.00;99.90;;;;;;5077505;28;19920;-84
2022/03/03 11:27:33;;;;;;;;;;;7.90;99.90;;;;;;5076920;28;20385;-84
2022/03/03 11:30:15;;;;;;;;;;;8.00;99.90;;;;;;5087502;28;19941;-84
2022/03/03 11:32:41;;;;;;;;;;;8.10;99.90;;;;;;5078137;28;19959;-84
2022/03/03 11:35:08;;;;;;;;;;;8.10;99.90;;;;;;5078099;28;20368;-84
2022/03/03 11:37:44;;;;;;;;;;;8.00;99.90;;;;;;5077480;28;19963;-84
2022/03/03 11:40:17;;;;;;;;;;;8.00;99.90;;;;;;5081938;28;20497;-84
2022/03/03 11:42:47;;;;;;;;;;;8.10;99.90;;;;;;5075655;28;20318;-84
2022/03/03 11:45:13;;;;;;;;;;;8.10;99.90;;;;;;5077466;28;19965;-84
2022/03/03 11:47:41;;;;;;;;;;;8.20;99.90;;;;;;5094119;28;19928;-84
2022/03/03 11:50:15;;;;;;;;;;;8.30;99.90;;;;;;5074609;28;20003;-83
2022/03/03 11:52:41;;;;;;;;;;;8.30;99.90;;;;;;5078015;28;19972;-84
2022/03/03 11:55:25;;;;;;;;;;;8.40;99.90;;;;;;5077445;28;20057;-84
2022/03/03 11:58:14;;;;;;;;;;;8.40;99.90;;;;;;5072044;28;19927;-84
2022/03/03 12:00:44;;;;;;;;;;;8.50;99.90;;;;;;5051838;28;19919;-84
2022/03/03 12:03:14;;;;;;;;;;;8.60;99.90;;;;;;5094728;28;20033;-84
2022/03/03 12:05:40;;;;;;;;;;;8.60;99.90;;;;;;5077890;28;19969;-84
2022/03/03 12:08:27;;;;;;;;;;;8.50;99.90;;;;;;5076867;28;19924;-84
2022/03/03 12:10:56;;;;;;;;;;;8.60;99.90;;;;;;5077831;28;19924;-84
2022/03/03 12:13:22;;;;;;;;;;;8.50;99.90;;;;;;5096182;28;20011;-84
2022/03/03 12:16:20;;;;;;;;;;;8.40;99.90;;;;;;5081160;28;20006;-84
2022/03/03 12:18:47;;;;;;;;;;;8.40;99.90;;;;;;5026423;28;19919;-84
2022/03/03 12:21:25;;;;;;;;;;;8.40;99.90;;;;;;5085595;28;19920;-84
2022/03/03 12:24:10;;;;;;;;;;;8.50;99.90;;;;;;5082591;28;19923;-84
2022/03/03 12:26:54;;;;;;;;;;;8.50;99.90;;;;;;5097561;28;19920;-83
2022/03/03 12:29:30;;;;;;;;;;;8.60;99.90;;;;;;5080686;28;20424;-84
2022/03/03 12:31:55;;;;;;;;;;;8.60;99.90;;;;;;5097794;28;20026;-84
2022/03/03 12:34:21;;;;;;;;;;;8.60;99.90;;;;;;5080494;28;19967;-85
2022/03/03 12:36:46;;;;;;;;;;;8.60;99.90;;;;;;5078498;28;19919;-85
2022/03/03 12:39:16;;;;;;;;;;;8.60;99.90;;;;;;5112447;28;19927;-84
2022/03/03 12:41:43;;;;;;;;;;;8.50;99.90;;;;;;5074091;28;19943;-84
2022/03/03 12:44:11;;;;;;;;;;;8.50;99.90;;;;;;5080402;28;20361;-84
2022/03/03 12:46:36;;;;;;;;;;;8.50;99.90;;;;;;5096569;28;19920;-84
2022/03/03 12:49:03;;;;;;;;;;;8.60;99.90;;;;;;5079851;28;19920;-84
2022/03/03 12:51:31;;;;;;;;;;;8.60;99.90;;;;;;5073427;28;20049;-84
2022/03/03 12:53:56;;;;;;;;;;;8.70;99.90;;;;;;5078501;28;20006;-84
2022/03/03 12:56:23;;;;;;;;;;;8.70;99.90;;;;;;5085726;27;20010;-84
2022/03/03 12:58:49;;;;;;;;;;;8.80;99.90;;;;;;5087083;28;19970;-84
2022/03/03 13:01:19;;;;;;;;;;;8.80;99.90;;;;;;5080238;28;19967;-84
2022/03/03 13:03:45;;;;;;;;;;;8.70;99.90;;;;;;5079839;28;20057;-84
2022/03/03 13:06:10;;;;;;;;;;;8.70;99.90;;;;;;5073966;28;20583;-84
2022/03/03 13:08:37;;;;;;;;;;;8.60;99.90;;;;;;5080298;28;19930;-84
2022/03/03 13:11:03;;;;;;;;;;;8.70;99.90;;;;;;5067802;28;19962;-84
2022/03/03 13:13:29;;;;;;;;;;;8.90;99.90;;;;;;5113902;28;19920;-84
2022/03/03 13:15:55;;;;;;;;;;;9.00;99.90;;;;;;5096579;28;19926;-84
2022/03/03 13:18:25;;;;;;;;;;;8.90;99.90;;;;;;5079242;28;20014;-84
2022/03/03 13:20:57;;;;;;;;;;;8.90;99.90;;;;;;5079838;28;20296;-84
2022/03/03 13:23:26;;;;;;;;;;;8.80;99.90;;;;;;5073330;28;19920;-84
2022/03/03 13:26:10;;;;;;;;;;;8.90;99.90;;;;;;5073791;28;19919;-84
2022/03/03 13:28:43;;;;;;;;;;;8.90;99.90;;;;;;5079684;28;19932;-83
2022/03/03 13:31:10;;;;;;;;;;;8.90;99.90;;;;;;5079718;28;19926;-84
2022/03/03 13:33:52;;;;;;;;;;;8.90;99.90;;;;;;5079933;28;19923;-84
2022/03/03 13:36:18;;;;;;;;;;;8.80;99.90;;;;;;5096013;28;19927;-84
2022/03/03 13:38:44;;;;;;;;;;;8.90;99.90;;;;;;5079766;28;19920;-84
2022/03/03 13:41:20;;;;;;;;;;;8.90;99.90;;;;;;5079223;28;20002;-85
2022/03/03 13:43:45;;;;;;;;;;;8.90;99.90;;;;;;5096016;28;20060;-84
2022/03/03 13:46:11;;;;;;;;;;;8.90;99.90;;;;;;5072344;28;20010;-84
2022/03/03 13:48:36;;;;;;;;;;;9.10;99.90;;;;;;5079357;28;19934;-85
2022/03/03 13:51:03;;;;;;;;;;;9.10;99.90;;;;;;5079273;28;19977;-84
2022/03/03 13:53:29;;;;;;;;;;;9.10;99.90;;;;;;5079157;28;19920;-84
2022/03/03 13:56:07;;;;;;;;;;;9.10;99.90;;;;;;5096128;28;19927;-83
2022/03/03 13:58:33;;;;;;;;;;;9.10;99.90;;;;;;5096417;28;19927;-84
2022/03/03 14:00:59;;;;;;;;;;;9.20;99.90;;;;;;5079353;28;19919;-84
2022/03/03 14:03:35;;;;;;;;;;;9.20;99.90;;;;;;5079058;28;19998;-84
2022/03/03 14:06:02;;;;;;;;;;;9.20;99.90;;;;;;5079016;28;19927;-83
2022/03/03 14:08:41;;;;;;;;;;;9.10;99.90;;;;;;5095751;28;19928;-84
2022/03/03 14:11:07;;;;;;;;;;;9.10;99.90;;;;;;5095814;28;19920;-84
2022/03/03 14:13:56;;;;;;;;;;;9.00;99.90;;;;;;5094585;28;20376;-84
2022/03/03 14:16:23;;;;;;;;;;;9.10;99.90;;;;;;5094307;28;20007;-84
2022/03/03 14:18:50;;;;;;;;;;;9.10;99.90;;;;;;5072692;28;19920;-84
2022/03/03 14:21:17;;;;;;;;;;;9.20;99.90;;;;;;5106964;27;20388;-84
2022/03/03 14:23:43;;;;;;;;;;;9.30;99.90;;;;;;5079173;27;19924;-84
2022/03/03 14:26:13;;;;;;;;;;;9.20;99.90;;;;;;5086624;28;20454;-84
2022/03/03 14:28:39;;;;;;;;;;;9.30;99.90;;;;;;5081814;28;19984;-84
2022/03/03 14:31:05;;;;;;;;;;;9.30;99.90;;;;;;5109531;27;20342;-84
2022/03/03 14:33:31;;;;;;;;;;;9.20;99.90;;;;;;5083700;28;19919;-84
2022/03/03 14:35:57;;;;;;;;;;;9.10;99.90;;;;;;5082888;27;19965;-84
2022/03/03 14:38:24;;;;;;;;;;;9.20;99.90;;;;;;5098446;28;20019;-84
2022/03/03 14:40:50;;;;;;;;;;;9.20;99.90;;;;;;5078537;28;20562;-84